A- A+ FrançaisEnglishEspañol中国

le plus proche LFBT Tarbes-Lourdes-PyrénéesLFRI La-Roche-Sur-Yon-Les-Ajones LFJH Cazeres PalaminyLFBP Pau-Pyrénées

manche à air

La météo aéronautique pour les pilotes, la préparation du vol avec les METAR (METeorological Aerodrome Report, message d'observation des conditions météorologiques pour l'aviation) et Les TAF (Terminal Aerodrome Forecast : message de prévision à court terme des conditions météorologiques pour l'aviation). Et les autres ressources comme les VAC (Visual Approch Chart) et les NOTAM (Notice To Airman) pour préprer les vols.

Aéroport Culdrose (Royaume-Uni) / OACI EGDR

L'altitude de l'aéroport Culdrose est de 81 m=266 ft. Il est situé à proximité de Helston (Royaume-Uni). La météo générale à 5 jours est disponible pour Saint Martins Green situé à 6.7 km.

METAR de l'aéroport Culdrose - EGDR

EGDR 291050Z 30020G30KT 4000 -RADZ BKN007 OVC012 14/13 Q1000 GRN BECMG 9999 NSW FEW015 RMK GRN BECMG BLU

Décodage du METAR de l'aéroport Culdrose (GB)

METAR émis par EGDR le dimanche 29 septembre 2019 à 10:50 heure TU. Attention ce METAR est obsolète car il a été émis il y a 15 heure et 9 minutes.

La visibilité est de 4 km=2.5 sm.

La température est de 14°C=57 °F et le point rosée est de 13°C=55 °F . Ce qui correspond à 94% d'humidité relative.

Le QNH est de 1000 hPa=29.53 inHg

Vent de 20 kt=37 km/h avec des rafales à 30 kt =56 km/h, orienté à 300°.

Nuages : Couverture nuageuse fragmentée à 700 ft=210 mètres. Couverture nuageuse soudée à 1200 ft=370 mètres.

-RADZ

GRN devenant 9999 NSW quelques nuages à 015 remarques grêle N devenant BLU

TAF de l'aéroport Culdrose - EGDR

EGDR 270429Z 2706/2715 25020G30KT 9999 FEW012 BKN018 TEMPO 2706/2715 25020G35KT 6000 SHRA SCT010 BKN018 PROB40 TEMPO 2706/2715 25025G40KT 3500 +SHRA BKN006 OVC016CB PROB30 TEMPO 2706/2715 2500 +TSGS BKN004 OVC014CB

EGDR 270429Z 2706/2715 25020G30KT 9999 quelques nuages à 012 couverture nuageuse fragmentée à 018 temporairement 2706/2715 25020G35KT 6000 SHRA nuages épars à 010 couverture nuageuse fragmentée à 018 probabilité de 40% d'avoir temporairement 2706/2715 25025G40KT 3500 forte SHRA couverture nuageuse fragmentée à 006 couverture nuageuse soudée à 016CB probabilité de 30% d'avoir temporairement 2706/2715 2500 forte TSGS couverture nuageuse fragmentée à 004 couverture nuageuse soudée à 014CB

Aéroport à proximité de Culdrose

Météo générale à 5 jours à Saint Martins Green (6.7 km)EGDO Aéroport Predannack (Closed) (10 km)EGHY Aéroport Truro (23 km)EGTP Aéroport Perranporth (28 km)EGHC Aéroport Lands End (30 km)EGLA Aéroport Bodmin (62 km)EGHE Aéroport Scilly Isles (76 km)

Vue aérienne de l'aéroport Culdrose

NOTAM de l'aéroport Culdrose

Les NOTAM sont fournis sans aucune garantie de leur actualité. Le pilote est le seul responsable de la vérification de sa validité avant de l'utiliser opérationnellement pour préparer un vol ou l'utiliser lors de sa navigation.

Pas de NOTAM

Sources des données